sensor_id;sensor_type;location;lat;lon;timestamp;temperature;humidity
4433;DHT22;2229;48.708;9.706;2023-11-18T00:00:01;5.90;99.90
4433;DHT22;2229;48.708;9.706;2023-11-18T00:02:36;5.90;99.90
4433;DHT22;2229;48.708;9.706;2023-11-18T00:05:04;6.00;99.90
4433;DHT22;2229;48.708;9.706;2023-11-18T00:07:33;5.90;99.90
4433;DHT22;2229;48.708;9.706;2023-11-18T00:10:00;5.90;99.90
4433;DHT22;2229;48.708;9.706;2023-11-18T00:12:29;5.90;99.90
4433;DHT22;2229;48.708;9.706;2023-11-18T00:14:56;5.90;99.90
4433;DHT22;2229;48.708;9.706;2023-11-18T00:17:23;5.90;99.90
4433;DHT22;2229;48.708;9.706;2023-11-18T00:19:50;5.90;99.90
4433;DHT22;2229;48.708;9.706;2023-11-18T00:22:19;5.90;99.90
4433;DHT22;2229;48.708;9.706;2023-11-18T00:24:47;5.90;99.90
4433;DHT22;2229;48.708;9.706;2023-11-18T00:27:15;5.90;99.90
4433;DHT22;2229;48.708;9.706;2023-11-18T00:29:44;5.90;99.90
4433;DHT22;2229;48.708;9.706;2023-11-18T00:32:11;5.90;99.90
4433;DHT22;2229;48.708;9.706;2023-11-18T00:34:38;5.90;99.90
4433;DHT22;2229;48.708;9.706;2023-11-18T00:37:05;5.90;99.90
4433;DHT22;2229;48.708;9.706;2023-11-18T00:39:33;5.90;99.90
4433;DHT22;2229;48.708;9.706;2023-11-18T00:42:00;5.90;99.90
4433;DHT22;2229;48.708;9.706;2023-11-18T00:44:27;5.90;99.90
4433;DHT22;2229;48.708;9.706;2023-11-18T00:46:56;6.00;99.90
4433;DHT22;2229;48.708;9.706;2023-11-18T00:49:23;6.00;99.90
4433;DHT22;2229;48.708;9.706;2023-11-18T00:51:51;6.00;99.90
4433;DHT22;2229;48.708;9.706;2023-11-18T00:54:18;6.00;99.90
4433;DHT22;2229;48.708;9.706;2023-11-18T00:56:45;6.10;99.90
4433;DHT22;2229;48.708;9.706;2023-11-18T00:59:13;6.10;99.90
4433;DHT22;2229;48.708;9.706;2023-11-18T01:01:41;6.10;99.90
4433;DHT22;2229;48.708;9.706;2023-11-18T01:04:10;6.10;99.90
4433;DHT22;2229;48.708;9.706;2023-11-18T01:06:37;6.10;99.90
4433;DHT22;2229;48.708;9.706;2023-11-18T01:09:05;6.10;99.90
4433;DHT22;2229;48.708;9.706;2023-11-18T01:11:33;6.10;99.90
4433;DHT22;2229;48.708;9.706;2023-11-18T01:14:01;6.10;99.90
4433;DHT22;2229;48.708;9.706;2023-11-18T01:16:28;6.10;99.90
4433;DHT22;2229;48.708;9.706;2023-11-18T01:18:56;6.20;99.90
4433;DHT22;2229;48.708;9.706;2023-11-18T01:21:25;6.20;99.90
4433;DHT22;2229;48.708;9.706;2023-11-18T01:23:54;6.20;99.90
4433;DHT22;2229;48.708;9.706;2023-11-18T01:26:21;6.20;99.90
4433;DHT22;2229;48.708;9.706;2023-11-18T01:28:49;6.20;99.90
4433;DHT22;2229;48.708;9.706;2023-11-18T01:31:16;6.10;99.90
4433;DHT22;2229;48.708;9.706;2023-11-18T01:33:43;6.10;99.90
4433;DHT22;2229;48.708;9.706;2023-11-18T01:36:13;6.10;99.90
4433;DHT22;2229;48.708;9.706;2023-11-18T01:38:42;6.10;99.90
4433;DHT22;2229;48.708;9.706;2023-11-18T01:41:09;6.10;99.90
4433;DHT22;2229;48.708;9.706;2023-11-18T01:43:36;6.10;99.90
4433;DHT22;2229;48.708;9.706;2023-11-18T01:46:08;6.10;99.90
4433;DHT22;2229;48.708;9.706;2023-11-18T01:48:40;6.10;99.90
4433;DHT22;2229;48.708;9.706;2023-11-18T01:51:09;6.10;99.90
4433;DHT22;2229;48.708;9.706;2023-11-18T01:53:38;6.00;99.90
4433;DHT22;2229;48.708;9.706;2023-11-18T01:56:08;6.00;99.90
4433;DHT22;2229;48.708;9.706;2023-11-18T01:58:37;6.00;99.90
4433;DHT22;2229;48.708;9.706;2023-11-18T02:01:06;6.00;99.90
4433;DHT22;2229;48.708;9.706;2023-11-18T02:03:35;6.10;99.90
4433;DHT22;2229;48.708;9.706;2023-11-18T02:06:05;6.00;99.90
4433;DHT22;2229;48.708;9.706;2023-11-18T02:08:37;6.00;99.90
4433;DHT22;2229;48.708;9.706;2023-11-18T02:11:13;6.00;99.90
4433;DHT22;2229;48.708;9.706;2023-11-18T02:13:43;6.00;99.90
4433;DHT22;2229;48.708;9.706;2023-11-18T02:16:14;5.90;99.90
4433;DHT22;2229;48.708;9.706;2023-11-18T02:18:43;6.00;99.90
4433;DHT22;2229;48.708;9.706;2023-11-18T02:21:10;6.00;99.90
4433;DHT22;2229;48.708;9.706;2023-11-18T02:23:41;6.00;99.90
4433;DHT22;2229;48.708;9.706;2023-11-18T02:26:21;6.00;99.90
4433;DHT22;2229;48.708;9.706;2023-11-18T02:28:48;6.00;99.90
4433;DHT22;2229;48.708;9.706;2023-11-18T02:31:22;6.00;99.90
4433;DHT22;2229;48.708;9.706;2023-11-18T02:33:57;6.00;99.90
4433;DHT22;2229;48.708;9.706;2023-11-18T02:36:31;6.00;99.90
4433;DHT22;2229;48.708;9.706;2023-11-18T02:39:04;6.00;99.90
4433;DHT22;2229;48.708;9.706;2023-11-18T02:41:36;6.00;99.90
4433;DHT22;2229;48.708;9.706;2023-11-18T02:44:04;6.00;99.90
4433;DHT22;2229;48.708;9.706;2023-11-18T02:46:36;6.00;99.90
4433;DHT22;2229;48.708;9.706;2023-11-18T02:49:05;6.00;99.90
4433;DHT22;2229;48.708;9.706;2023-11-18T02:51:33;6.00;99.90
4433;DHT22;2229;48.708;9.706;2023-11-18T02:54:05;6.00;99.90
4433;DHT22;2229;48.708;9.706;2023-11-18T02:56:37;6.00;99.90
4433;DHT22;2229;48.708;9.706;2023-11-18T02:59:05;6.00;99.90
4433;DHT22;2229;48.708;9.706;2023-11-18T03:01:32;6.00;99.90
4433;DHT22;2229;48.708;9.706;2023-11-18T03:03:59;6.00;99.90
4433;DHT22;2229;48.708;9.706;2023-11-18T03:06:27;6.00;99.90
4433;DHT22;2229;48.708;9.706;2023-11-18T03:08:54;6.00;99.90
4433;DHT22;2229;48.708;9.706;2023-11-18T03:11:21;6.00;99.90
4433;DHT22;2229;48.708;9.706;2023-11-18T03:13:50;6.00;99.90
4433;DHT22;2229;48.708;9.706;2023-11-18T03:16:17;6.00;99.90
4433;DHT22;2229;48.708;9.706;2023-11-18T03:18:44;6.00;99.90
4433;DHT22;2229;48.708;9.706;2023-11-18T03:21:11;6.00;99.90
4433;DHT22;2229;48.708;9.706;2023-11-18T03:23:39;6.00;99.90
4433;DHT22;2229;48.708;9.706;2023-11-18T03:26:07;6.00;99.90
4433;DHT22;2229;48.708;9.706;2023-11-18T03:28:34;6.00;99.90
4433;DHT22;2229;48.708;9.706;2023-11-18T03:31:04;6.00;99.90
4433;DHT22;2229;48.708;9.706;2023-11-18T03:33:32;6.00;99.90
4433;DHT22;2229;48.708;9.706;2023-11-18T03:35:59;6.00;99.90
4433;DHT22;2229;48.708;9.706;2023-11-18T03:38:26;6.00;99.90
4433;DHT22;2229;48.708;9.706;2023-11-18T03:40:54;6.00;99.90
4433;DHT22;2229;48.708;9.706;2023-11-18T03:43:22;6.00;99.90
4433;DHT22;2229;48.708;9.706;2023-11-18T03:45:49;6.00;99.90
4433;DHT22;2229;48.708;9.706;2023-11-18T03:48:19;6.00;99.90
4433;DHT22;2229;48.708;9.706;2023-11-18T03:50:46;6.00;99.90
4433;DHT22;2229;48.708;9.706;2023-11-18T03:53:13;6.00;99.90
4433;DHT22;2229;48.708;9.706;2023-11-18T03:55:40;6.00;99.90
4433;DHT22;2229;48.708;9.706;2023-11-18T03:58:08;6.00;99.90
4433;DHT22;2229;48.708;9.706;2023-11-18T04:00:35;6.10;99.90
4433;DHT22;2229;48.708;9.706;2023-11-18T04:03:02;6.00;99.90
4433;DHT22;2229;48.708;9.706;2023-11-18T04:05:36;6.10;99.90
4433;DHT22;2229;48.708;9.706;2023-11-18T04:08:04;6.00;99.90
4433;DHT22;2229;48.708;9.706;2023-11-18T04:10:32;6.10;99.90
4433;DHT22;2229;48.708;9.706;2023-11-18T04:12:59;6.10;99.90
4433;DHT22;2229;48.708;9.706;2023-11-18T04:15:27;6.10;99.90
4433;DHT22;2229;48.708;9.706;2023-11-18T04:17:54;6.10;99.90
4433;DHT22;2229;48.708;9.706;2023-11-18T04:20:21;6.10;99.90
4433;DHT22;2229;48.708;9.706;2023-11-18T04:22:50;6.10;99.90
4433;DHT22;2229;48.708;9.706;2023-11-18T04:25:17;6.10;99.90
4433;DHT22;2229;48.708;9.706;2023-11-18T04:27:47;6.10;99.90
4433;DHT22;2229;48.708;9.706;2023-11-18T04:30:20;6.10;99.90
4433;DHT22;2229;48.708;9.706;2023-11-18T04:32:48;6.10;99.90
4433;DHT22;2229;48.708;9.706;2023-11-18T04:35:18;6.10;99.90
4433;DHT22;2229;48.708;9.706;2023-11-18T04:37:49;6.10;99.90
4433;DHT22;2229;48.708;9.706;2023-11-18T04:40:17;6.10;99.90
4433;DHT22;2229;48.708;9.706;2023-11-18T04:42:44;6.10;99.90
4433;DHT22;2229;48.708;9.706;2023-11-18T04:45:11;6.10;99.90
4433;DHT22;2229;48.708;9.706;2023-11-18T04:47:40;6.10;99.90
4433;DHT22;2229;48.708;9.706;2023-11-18T04:50:10;6.10;99.90
4433;DHT22;2229;48.708;9.706;2023-11-18T04:52:37;6.10;99.90
4433;DHT22;2229;48.708;9.706;2023-11-18T04:55:06;6.00;99.90
4433;DHT22;2229;48.708;9.706;2023-11-18T04:57:35;6.00;99.90
4433;DHT22;2229;48.708;9.706;2023-11-18T05:00:11;6.00;99.90
4433;DHT22;2229;48.708;9.706;2023-11-18T05:02:42;6.00;99.90
4433;DHT22;2229;48.708;9.706;2023-11-18T05:05:10;6.00;99.90
4433;DHT22;2229;48.708;9.706;2023-11-18T05:07:38;6.10;99.90
4433;DHT22;2229;48.708;9.706;2023-11-18T05:10:08;6.00;99.90
4433;DHT22;2229;48.708;9.706;2023-11-18T05:12:36;6.00;99.90
4433;DHT22;2229;48.708;9.706;2023-11-18T05:15:04;6.00;99.90
4433;DHT22;2229;48.708;9.706;2023-11-18T05:17:33;6.00;99.90
4433;DHT22;2229;48.708;9.706;2023-11-18T05:20:01;6.00;99.90
4433;DHT22;2229;48.708;9.706;2023-11-18T05:22:28;6.00;99.90
4433;DHT22;2229;48.708;9.706;2023-11-18T05:24:57;6.00;99.90
4433;DHT22;2229;48.708;9.706;2023-11-18T05:27:25;6.10;99.90
4433;DHT22;2229;48.708;9.706;2023-11-18T05:29:53;6.10;99.90
4433;DHT22;2229;48.708;9.706;2023-11-18T05:32:21;6.00;99.90
4433;DHT22;2229;48.708;9.706;2023-11-18T05:34:48;6.10;99.90
4433;DHT22;2229;48.708;9.706;2023-11-18T05:37:23;6.00;99.90
4433;DHT22;2229;48.708;9.706;2023-11-18T05:39:51;6.00;99.90
4433;DHT22;2229;48.708;9.706;2023-11-18T05:42:29;6.00;99.90
4433;DHT22;2229;48.708;9.706;2023-11-18T05:44:56;5.80;99.90
4433;DHT22;2229;48.708;9.706;2023-11-18T05:47:25;5.80;99.90
4433;DHT22;2229;48.708;9.706;2023-11-18T05:49:52;5.70;99.90
4433;DHT22;2229;48.708;9.706;2023-11-18T05:52:21;5.60;99.90
4433;DHT22;2229;48.708;9.706;2023-11-18T05:54:48;5.50;99.90
4433;DHT22;2229;48.708;9.706;2023-11-18T05:57:16;5.50;99.90
4433;DHT22;2229;48.708;9.706;2023-11-18T05:59:44;5.40;99.90
4433;DHT22;2229;48.708;9.706;2023-11-18T06:02:13;5.40;99.90
4433;DHT22;2229;48.708;9.706;2023-11-18T06:04:44;5.30;99.90
4433;DHT22;2229;48.708;9.706;2023-11-18T06:07:11;5.20;99.90
4433;DHT22;2229;48.708;9.706;2023-11-18T06:09:40;5.20;99.90
4433;DHT22;2229;48.708;9.706;2023-11-18T06:12:08;5.10;99.90
4433;DHT22;2229;48.708;9.706;2023-11-18T06:14:36;5.00;99.90
4433;DHT22;2229;48.708;9.706;2023-11-18T06:17:05;5.00;99.90
4433;DHT22;2229;48.708;9.706;2023-11-18T06:19:33;5.00;99.90
4433;DHT22;2229;48.708;9.706;2023-11-18T06:22:00;4.90;99.90
4433;DHT22;2229;48.708;9.706;2023-11-18T06:24:27;4.90;99.90
4433;DHT22;2229;48.708;9.706;2023-11-18T06:26:55;4.80;99.90
4433;DHT22;2229;48.708;9.706;2023-11-18T06:29:22;4.80;99.90
4433;DHT22;2229;48.708;9.706;2023-11-18T06:31:49;4.70;99.90
4433;DHT22;2229;48.708;9.706;2023-11-18T06:34:18;4.70;99.90
4433;DHT22;2229;48.708;9.706;2023-11-18T06:36:47;4.60;99.90
4433;DHT22;2229;48.708;9.706;2023-11-18T06:39:14;4.60;99.90
4433;DHT22;2229;48.708;9.706;2023-11-18T06:41:42;4.50;99.90
4433;DHT22;2229;48.708;9.706;2023-11-18T06:44:14;4.50;99.90
4433;DHT22;2229;48.708;9.706;2023-11-18T06:46:49;4.50;99.90
4433;DHT22;2229;48.708;9.706;2023-11-18T06:49:18;4.50;99.90
4433;DHT22;2229;48.708;9.706;2023-11-18T06:51:45;4.40;99.90
4433;DHT22;2229;48.708;9.706;2023-11-18T06:54:13;4.40;99.90
4433;DHT22;2229;48.708;9.706;2023-11-18T06:56:41;4.40;99.90
4433;DHT22;2229;48.708;9.706;2023-11-18T06:59:10;4.40;99.90
4433;DHT22;2229;48.708;9.706;2023-11-18T07:01:38;4.40;99.90
4433;DHT22;2229;48.708;9.706;2023-11-18T07:04:08;4.40;99.90
4433;DHT22;2229;48.708;9.706;2023-11-18T07:06:40;4.40;99.90
4433;DHT22;2229;48.708;9.706;2023-11-18T07:09:09;4.50;99.90
4433;DHT22;2229;48.708;9.706;2023-11-18T07:11:40;4.50;99.90
4433;DHT22;2229;48.708;9.706;2023-11-18T07:14:07;4.50;99.90
4433;DHT22;2229;48.708;9.706;2023-11-18T07:16:37;4.50;99.90
4433;DHT22;2229;48.708;9.706;2023-11-18T07:19:04;4.60;99.90
4433;DHT22;2229;48.708;9.706;2023-11-18T07:21:31;4.70;99.90
4433;DHT22;2229;48.708;9.706;2023-11-18T07:24:00;4.80;99.90
4433;DHT22;2229;48.708;9.706;2023-11-18T07:26:28;5.00;99.90
4433;DHT22;2229;48.708;9.706;2023-11-18T07:28:55;5.10;99.90
4433;DHT22;2229;48.708;9.706;2023-11-18T07:31:22;5.20;99.90
4433;DHT22;2229;48.708;9.706;2023-11-18T07:33:50;5.30;99.90
4433;DHT22;2229;48.708;9.706;2023-11-18T07:36:18;5.40;99.90
4433;DHT22;2229;48.708;9.706;2023-11-18T07:38:45;5.40;99.90
4433;DHT22;2229;48.708;9.706;2023-11-18T07:41:14;5.50;99.90
4433;DHT22;2229;48.708;9.706;2023-11-18T07:43:50;5.60;99.90
4433;DHT22;2229;48.708;9.706;2023-11-18T07:46:18;5.70;99.90
4433;DHT22;2229;48.708;9.706;2023-11-18T07:48:48;5.90;99.90
4433;DHT22;2229;48.708;9.706;2023-11-18T07:51:16;6.20;99.90
4433;DHT22;2229;48.708;9.706;2023-11-18T07:53:43;6.40;99.90
4433;DHT22;2229;48.708;9.706;2023-11-18T07:56:11;6.70;99.90
4433;DHT22;2229;48.708;9.706;2023-11-18T07:58:41;6.90;99.90
4433;DHT22;2229;48.708;9.706;2023-11-18T08:01:11;7.30;99.90
4433;DHT22;2229;48.708;9.706;2023-11-18T08:03:38;7.60;99.90
4433;DHT22;2229;48.708;9.706;2023-11-18T08:06:07;8.00;99.90
4433;DHT22;2229;48.708;9.706;2023-11-18T08:08:34;8.40;99.90
4433;DHT22;2229;48.708;9.706;2023-11-18T08:11:04;9.40;99.90
4433;DHT22;2229;48.708;9.706;2023-11-18T08:13:31;10.70;99.90
4433;DHT22;2229;48.708;9.706;2023-11-18T08:16:00;12.10;99.90
4433;DHT22;2229;48.708;9.706;2023-11-18T08:18:27;13.00;99.90
4433;DHT22;2229;48.708;9.706;2023-11-18T08:20:57;13.60;99.90
4433;DHT22;2229;48.708;9.706;2023-11-18T08:23:26;13.70;99.90
4433;DHT22;2229;48.708;9.706;2023-11-18T08:25:54;13.40;99.90
4433;DHT22;2229;48.708;9.706;2023-11-18T08:28:21;13.00;99.90
4433;DHT22;2229;48.708;9.706;2023-11-18T08:30:48;12.60;99.90
4433;DHT22;2229;48.708;9.706;2023-11-18T08:33:19;12.40;99.90
4433;DHT22;2229;48.708;9.706;2023-11-18T08:35:48;12.30;99.90
4433;DHT22;2229;48.708;9.706;2023-11-18T08:38:15;12.20;99.90
4433;DHT22;2229;48.708;9.706;2023-11-18T08:40:45;12.00;99.90
4433;DHT22;2229;48.708;9.706;2023-11-18T08:43:14;11.80;99.40
4433;DHT22;2229;48.708;9.706;2023-11-18T08:45:42;11.70;99.20
4433;DHT22;2229;48.708;9.706;2023-11-18T08:48:09;11.60;99.20
4433;DHT22;2229;48.708;9.706;2023-11-18T08:50:38;11.50;99.10
4433;DHT22;2229;48.708;9.706;2023-11-18T08:53:06;11.60;98.90
4433;DHT22;2229;48.708;9.706;2023-11-18T08:55:35;11.70;98.60
4433;DHT22;2229;48.708;9.706;2023-11-18T08:58:06;11.60;98.20
4433;DHT22;2229;48.708;9.706;2023-11-18T09:00:45;11.50;98.10
4433;DHT22;2229;48.708;9.706;2023-11-18T09:03:15;11.40;98.00
4433;DHT22;2229;48.708;9.706;2023-11-18T09:05:52;11.30;97.80
4433;DHT22;2229;48.708;9.706;2023-11-18T09:08:30;11.40;98.10
4433;DHT22;2229;48.708;9.706;2023-11-18T09:11:01;11.40;98.20
4433;DHT22;2229;48.708;9.706;2023-11-18T09:13:31;11.60;98.30
4433;DHT22;2229;48.708;9.706;2023-11-18T09:16:01;11.70;98.30
4433;DHT22;2229;48.708;9.706;2023-11-18T09:18:29;12.10;98.30
4433;DHT22;2229;48.708;9.706;2023-11-18T09:21:00;12.40;97.80
4433;DHT22;2229;48.708;9.706;2023-11-18T09:23:30;12.70;97.60
4433;DHT22;2229;48.708;9.706;2023-11-18T09:25:58;13.20;97.60
4433;DHT22;2229;48.708;9.706;2023-11-18T09:28:28;13.70;97.40
4433;DHT22;2229;48.708;9.706;2023-11-18T09:30:55;14.10;96.70
4433;DHT22;2229;48.708;9.706;2023-11-18T09:33:25;14.40;96.00
4433;DHT22;2229;48.708;9.706;2023-11-18T09:35:55;14.90;95.40
4433;DHT22;2229;48.708;9.706;2023-11-18T09:38:27;15.60;94.70
4433;DHT22;2229;48.708;9.706;2023-11-18T09:40:56;16.60;93.70
4433;DHT22;2229;48.708;9.706;2023-11-18T09:43:25;17.30;92.30
4433;DHT22;2229;48.708;9.706;2023-11-18T09:45:55;18.10;90.90
4433;DHT22;2229;48.708;9.706;2023-11-18T09:48:23;19.00;89.80
4433;DHT22;2229;48.708;9.706;2023-11-18T09:50:52;19.70;84.70
4433;DHT22;2229;48.708;9.706;2023-11-18T09:53:20;20.30;81.80
4433;DHT22;2229;48.708;9.706;2023-11-18T09:55:53;20.40;80.00
4433;DHT22;2229;48.708;9.706;2023-11-18T09:58:34;20.50;78.90
4433;DHT22;2229;48.708;9.706;2023-11-18T10:01:07;20.60;77.00
4433;DHT22;2229;48.708;9.706;2023-11-18T10:03:40;20.70;75.70
4433;DHT22;2229;48.708;9.706;2023-11-18T10:06:09;20.70;74.90
4433;DHT22;2229;48.708;9.706;2023-11-18T10:08:38;20.50;73.80
4433;DHT22;2229;48.708;9.706;2023-11-18T10:11:07;20.30;72.40
4433;DHT22;2229;48.708;9.706;2023-11-18T10:13:39;20.30;72.30
4433;DHT22;2229;48.708;9.706;2023-11-18T10:16:07;20.30;72.50
4433;DHT22;2229;48.708;9.706;2023-11-18T10:18:35;20.30;71.90
4433;DHT22;2229;48.708;9.706;2023-11-18T10:21:03;20.20;71.60
4433;DHT22;2229;48.708;9.706;2023-11-18T10:23:34;19.90;71.10
4433;DHT22;2229;48.708;9.706;2023-11-18T10:26:03;19.70;69.80
4433;DHT22;2229;48.708;9.706;2023-11-18T10:28:33;19.30;67.90
4433;DHT22;2229;48.708;9.706;2023-11-18T10:31:05;18.80;67.30
4433;DHT22;2229;48.708;9.706;2023-11-18T10:33:36;18.30;66.80
4433;DHT22;2229;48.708;9.706;2023-11-18T10:36:05;17.80;66.40
4433;DHT22;2229;48.708;9.706;2023-11-18T10:38:39;17.20;67.10
4433;DHT22;2229;48.708;9.706;2023-11-18T10:41:09;16.70;68.30
4433;DHT22;2229;48.708;9.706;2023-11-18T10:43:39;16.30;69.10
4433;DHT22;2229;48.708;9.706;2023-11-18T10:46:08;15.80;69.30
4433;DHT22;2229;48.708;9.706;2023-11-18T10:48:43;15.40;70.10
4433;DHT22;2229;48.708;9.706;2023-11-18T10:51:14;14.80;69.90
4433;DHT22;2229;48.708;9.706;2023-11-18T10:53:42;14.40;70.80
4433;DHT22;2229;48.708;9.706;2023-11-18T10:56:19;14.10;71.20
4433;DHT22;2229;48.708;9.706;2023-11-18T10:58:55;13.80;71.80
4433;DHT22;2229;48.708;9.706;2023-11-18T11:01:29;13.40;73.20
4433;DHT22;2229;48.708;9.706;2023-11-18T11:03:57;13.20;74.90
4433;DHT22;2229;48.708;9.706;2023-11-18T11:06:26;12.90;75.50
4433;DHT22;2229;48.708;9.706;2023-11-18T11:08:56;12.70;76.70
4433;DHT22;2229;48.708;9.706;2023-11-18T11:11:36;12.50;77.50
4433;DHT22;2229;48.708;9.706;2023-11-18T11:14:09;12.30;78.20
4433;DHT22;2229;48.708;9.706;2023-11-18T11:16:40;12.10;77.80
4433;DHT22;2229;48.708;9.706;2023-11-18T11:19:15;11.90;78.10
4433;DHT22;2229;48.708;9.706;2023-11-18T11:21:55;11.80;78.20
4433;DHT22;2229;48.708;9.706;2023-11-18T11:24:31;11.60;78.30
4433;DHT22;2229;48.708;9.706;2023-11-18T11:27:09;11.50;78.40
4433;DHT22;2229;48.708;9.706;2023-11-18T11:29:50;11.30;78.70
4433;DHT22;2229;48.708;9.706;2023-11-18T11:32:23;11.20;79.70
4433;DHT22;2229;48.708;9.706;2023-11-18T11:34:55;11.10;80.70
4433;DHT22;2229;48.708;9.706;2023-11-18T11:37:24;11.00;81.70
4433;DHT22;2229;48.708;9.706;2023-11-18T11:39:53;11.00;82.80
4433;DHT22;2229;48.708;9.706;2023-11-18T11:42:22;10.90;82.70
4433;DHT22;2229;48.708;9.706;2023-11-18T11:44:51;10.90;82.10
4433;DHT22;2229;48.708;9.706;2023-11-18T11:47:22;10.80;82.10
4433;DHT22;2229;48.708;9.706;2023-11-18T11:49:55;10.90;83.60
4433;DHT22;2229;48.708;9.706;2023-11-18T11:52:29;10.90;84.20
4433;DHT22;2229;48.708;9.706;2023-11-18T11:55:02;10.80;85.20
4433;DHT22;2229;48.708;9.706;2023-11-18T11:57:32;10.90;86.20
4433;DHT22;2229;48.708;9.706;2023-11-18T12:00:05;10.90;87.00
4433;DHT22;2229;48.708;9.706;2023-11-18T12:02:48;10.90;87.20
4433;DHT22;2229;48.708;9.706;2023-11-18T12:05:16;11.00;87.40
4433;DHT22;2229;48.708;9.706;2023-11-18T12:07:45;11.00;87.30
4433;DHT22;2229;48.708;9.706;2023-11-18T12:10:14;11.00;87.20
4433;DHT22;2229;48.708;9.706;2023-11-18T12:12:47;11.00;87.90
4433;DHT22;2229;48.708;9.706;2023-11-18T12:15:47;11.00;88.00
4433;DHT22;2229;48.708;9.706;2023-11-18T12:18:20;11.00;88.00
4433;DHT22;2229;48.708;9.706;2023-11-18T12:20:47;10.90;88.20
4433;DHT22;2229;48.708;9.706;2023-11-18T12:23:20;10.90;88.80
4433;DHT22;2229;48.708;9.706;2023-11-18T12:25:49;10.90;89.40
4433;DHT22;2229;48.708;9.706;2023-11-18T12:28:21;10.80;88.90
4433;DHT22;2229;48.708;9.706;2023-11-18T12:30:54;10.80;88.90
4433;DHT22;2229;48.708;9.706;2023-11-18T12:34:00;10.80;89.40
4433;DHT22;2229;48.708;9.706;2023-11-18T12:40:09;10.80;88.60
4433;DHT22;2229;48.708;9.706;2023-11-18T12:42:58;10.80;88.40
4433;DHT22;2229;48.708;9.706;2023-11-18T12:45:42;10.70;88.00
4433;DHT22;2229;48.708;9.706;2023-11-18T12:48:14;10.70;88.40
4433;DHT22;2229;48.708;9.706;2023-11-18T12:50:42;10.70;88.50
4433;DHT22;2229;48.708;9.706;2023-11-18T12:53:12;10.60;88.40
4433;DHT22;2229;48.708;9.706;2023-11-18T12:55:40;10.60;88.70
4433;DHT22;2229;48.708;9.706;2023-11-18T12:58:08;10.60;89.10
4433;DHT22;2229;48.708;9.706;2023-11-18T13:00:40;10.60;89.80
4433;DHT22;2229;48.708;9.706;2023-11-18T13:03:09;10.60;89.70
4433;DHT22;2229;48.708;9.706;2023-11-18T13:05:38;10.50;89.40
4433;DHT22;2229;48.708;9.706;2023-11-18T13:08:08;10.40;89.20
4433;DHT22;2229;48.708;9.706;2023-11-18T13:10:35;10.30;89.50
4433;DHT22;2229;48.708;9.706;2023-11-18T13:13:04;10.20;89.80
4433;DHT22;2229;48.708;9.706;2023-11-18T13:15:35;10.10;89.90
4433;DHT22;2229;48.708;9.706;2023-11-18T13:18:03;10.00;90.20
4433;DHT22;2229;48.708;9.706;2023-11-18T13:20:32;10.00;90.40
4433;DHT22;2229;48.708;9.706;2023-11-18T13:23:02;9.90;91.20
4433;DHT22;2229;48.708;9.706;2023-11-18T13:25:34;9.80;91.30
4433;DHT22;2229;48.708;9.706;2023-11-18T13:28:04;9.70;91.40
4433;DHT22;2229;48.708;9.706;2023-11-18T13:30:32;9.70;91.50
4433;DHT22;2229;48.708;9.706;2023-11-18T13:33:00;9.60;91.60
4433;DHT22;2229;48.708;9.706;2023-11-18T13:35:29;9.60;91.90
4433;DHT22;2229;48.708;9.706;2023-11-18T13:37:56;9.60;92.00
4433;DHT22;2229;48.708;9.706;2023-11-18T13:40:25;9.50;92.10
4433;DHT22;2229;48.708;9.706;2023-11-18T13:43:04;9.50;92.10
4433;DHT22;2229;48.708;9.706;2023-11-18T13:45:34;9.40;92.20
4433;DHT22;2229;48.708;9.706;2023-11-18T13:48:02;9.40;92.80
4433;DHT22;2229;48.708;9.706;2023-11-18T13:50:29;9.30;92.40
4433;DHT22;2229;48.708;9.706;2023-11-18T13:52:56;9.30;92.50
4433;DHT22;2229;48.708;9.706;2023-11-18T13:55:26;9.20;92.60
4433;DHT22;2229;48.708;9.706;2023-11-18T13:57:53;9.10;92.60
4433;DHT22;2229;48.708;9.706;2023-11-18T14:00:24;9.00;92.70
4433;DHT22;2229;48.708;9.706;2023-11-18T14:02:54;9.00;92.90
4433;DHT22;2229;48.708;9.706;2023-11-18T14:05:22;9.00;93.10
4433;DHT22;2229;48.708;9.706;2023-11-18T14:07:51;9.00;93.20
4433;DHT22;2229;48.708;9.706;2023-11-18T14:10:18;8.90;93.30
4433;DHT22;2229;48.708;9.706;2023-11-18T14:13:02;8.90;93.30
4433;DHT22;2229;48.708;9.706;2023-11-18T14:15:31;8.90;93.40
4433;DHT22;2229;48.708;9.706;2023-11-18T14:18:04;8.90;93.40
4433;DHT22;2229;48.708;9.706;2023-11-18T14:20:33;8.90;93.40
4433;DHT22;2229;48.708;9.706;2023-11-18T14:23:01;8.90;93.40
4433;DHT22;2229;48.708;9.706;2023-11-18T14:25:29;8.80;93.70
4433;DHT22;2229;48.708;9.706;2023-11-18T14:27:56;8.80;93.40
4433;DHT22;2229;48.708;9.706;2023-11-18T14:30:25;8.80;93.30
4433;DHT22;2229;48.708;9.706;2023-11-18T14:32:52;8.80;93.30
4433;DHT22;2229;48.708;9.706;2023-11-18T14:35:20;8.80;93.40
4433;DHT22;2229;48.708;9.706;2023-11-18T14:37:48;8.80;93.70
4433;DHT22;2229;48.708;9.706;2023-11-18T14:40:16;8.80;93.70
4433;DHT22;2229;48.708;9.706;2023-11-18T14:42:45;8.70;93.70
4433;DHT22;2229;48.708;9.706;2023-11-18T14:45:14;8.70;93.70
4433;DHT22;2229;48.708;9.706;2023-11-18T14:47:44;8.60;93.70
4433;DHT22;2229;48.708;9.706;2023-11-18T14:50:13;8.60;93.80
4433;DHT22;2229;48.708;9.706;2023-11-18T14:52:44;8.60;93.90
4433;DHT22;2229;48.708;9.706;2023-11-18T14:55:13;8.60;94.10
4433;DHT22;2229;48.708;9.706;2023-11-18T14:57:43;8.60;94.20
4433;DHT22;2229;48.708;9.706;2023-11-18T15:00:13;8.50;94.10
4433;DHT22;2229;48.708;9.706;2023-11-18T15:02:49;8.50;94.10
4433;DHT22;2229;48.708;9.706;2023-11-18T15:05:17;8.50;94.20
4433;DHT22;2229;48.708;9.706;2023-11-18T15:07:45;8.50;94.30
4433;DHT22;2229;48.708;9.706;2023-11-18T15:10:15;8.50;94.20
4433;DHT22;2229;48.708;9.706;2023-11-18T15:12:46;8.50;94.30
4433;DHT22;2229;48.708;9.706;2023-11-18T15:15:14;8.50;94.50
4433;DHT22;2229;48.708;9.706;2023-11-18T15:17:45;8.50;94.50
4433;DHT22;2229;48.708;9.706;2023-11-18T15:20:16;8.50;94.40
4433;DHT22;2229;48.708;9.706;2023-11-18T15:22:44;8.50;94.30
4433;DHT22;2229;48.708;9.706;2023-11-18T15:25:12;8.50;94.20
4433;DHT22;2229;48.708;9.706;2023-11-18T15:27:43;8.50;94.20
4433;DHT22;2229;48.708;9.706;2023-11-18T15:30:13;8.60;94.30
4433;DHT22;2229;48.708;9.706;2023-11-18T15:32:46;8.60;94.30
4433;DHT22;2229;48.708;9.706;2023-11-18T15:35:13;8.60;94.30
4433;DHT22;2229;48.708;9.706;2023-11-18T15:37:44;8.60;94.40
4433;DHT22;2229;48.708;9.706;2023-11-18T15:40:14;8.50;94.60
4433;DHT22;2229;48.708;9.706;2023-11-18T15:42:52;8.50;94.80
4433;DHT22;2229;48.708;9.706;2023-11-18T15:45:21;8.50;95.10
4433;DHT22;2229;48.708;9.706;2023-11-18T15:47:50;8.50;95.20
4433;DHT22;2229;48.708;9.706;2023-11-18T15:50:17;8.40;95.20
4433;DHT22;2229;48.708;9.706;2023-11-18T15:52:49;8.40;95.20
4433;DHT22;2229;48.708;9.706;2023-11-18T15:55:17;8.40;95.40
4433;DHT22;2229;48.708;9.706;2023-11-18T15:57:47;8.40;95.70
4433;DHT22;2229;48.708;9.706;2023-11-18T16:00:20;8.40;95.20
4433;DHT22;2229;48.708;9.706;2023-11-18T16:02:49;8.40;95.10
4433;DHT22;2229;48.708;9.706;2023-11-18T16:05:18;8.40;94.90
4433;DHT22;2229;48.708;9.706;2023-11-18T16:07:49;8.30;94.70
4433;DHT22;2229;48.708;9.706;2023-11-18T16:10:18;8.30;94.60
4433;DHT22;2229;48.708;9.706;2023-11-18T16:12:50;8.30;94.50
4433;DHT22;2229;48.708;9.706;2023-11-18T16:15:18;8.30;94.60
4433;DHT22;2229;48.708;9.706;2023-11-18T16:17:51;8.30;94.50
4433;DHT22;2229;48.708;9.706;2023-11-18T16:20:20;8.30;94.50
4433;DHT22;2229;48.708;9.706;2023-11-18T16:22:50;8.30;94.50
4433;DHT22;2229;48.708;9.706;2023-11-18T16:25:24;8.20;94.10
4433;DHT22;2229;48.708;9.706;2023-11-18T16:27:55;8.30;93.90
4433;DHT22;2229;48.708;9.706;2023-11-18T16:30:28;8.20;93.70